sensor_id;sensor_type;location;lat;lon;timestamp;pressure;altitude;pressure_sealevel;temperature;humidity
36598;BME280;22607;49.550;11.940;2023-02-19T00:01:41;97096.38;;;8.77;100.00
36598;BME280;22607;49.550;11.940;2023-02-19T00:04:16;97091.56;;;8.28;100.00
36598;BME280;22607;49.550;11.940;2023-02-19T00:06:44;97085.69;;;8.26;100.00
36598;BME280;22607;49.550;11.940;2023-02-19T00:09:14;97084.22;;;8.50;100.00
36598;BME280;22607;49.550;11.940;2023-02-19T00:11:41;97089.19;;;8.53;100.00
36598;BME280;22607;49.550;11.940;2023-02-19T00:14:10;97088.88;;;8.56;100.00
36598;BME280;22607;49.550;11.940;2023-02-19T00:16:38;97082.00;;;8.55;100.00
36598;BME280;22607;49.550;11.940;2023-02-19T00:19:07;97085.28;;;8.57;100.00
36598;BME280;22607;49.550;11.940;2023-02-19T00:21:36;97069.25;;;8.60;100.00
36598;BME280;22607;49.550;11.940;2023-02-19T00:24:05;97068.97;;;8.63;100.00
36598;BME280;22607;49.550;11.940;2023-02-19T00:26:33;97076.22;;;8.51;100.00
36598;BME280;22607;49.550;11.940;2023-02-19T00:29:00;97080.34;;;8.54;100.00
36598;BME280;22607;49.550;11.940;2023-02-19T00:31:32;97070.81;;;8.71;100.00
36598;BME280;22607;49.550;11.940;2023-02-19T00:34:02;97081.38;;;8.61;100.00
36598;BME280;22607;49.550;11.940;2023-02-19T00:36:32;97076.34;;;8.68;100.00
36598;BME280;22607;49.550;11.940;2023-02-19T00:39:00;97072.44;;;8.72;100.00
36598;BME280;22607;49.550;11.940;2023-02-19T00:41:27;97072.19;;;8.57;100.00
36598;BME280;22607;49.550;11.940;2023-02-19T00:46:42;97078.31;;;8.66;100.00
36598;BME280;22607;49.550;11.940;2023-02-19T00:49:15;97070.81;;;8.71;100.00
36598;BME280;22607;49.550;11.940;2023-02-19T00:51:41;97076.47;;;8.58;100.00
36598;BME280;22607;49.550;11.940;2023-02-19T00:54:09;97076.22;;;8.51;100.00
36598;BME280;22607;49.550;11.940;2023-02-19T00:56:36;97068.97;;;8.63;100.00
36598;BME280;22607;49.550;11.940;2023-02-19T00:59:02;97065.47;;;8.55;100.00
36598;BME280;22607;49.550;11.940;2023-02-19T01:01:35;97039.88;;;8.48;100.00
36598;BME280;22607;49.550;11.940;2023-02-19T01:04:02;97052.88;;;8.40;100.00
36598;BME280;22607;49.550;11.940;2023-02-19T01:06:32;97041.47;;;8.41;100.00
36598;BME280;22607;49.550;11.940;2023-02-19T01:08:59;97039.66;;;8.41;100.00
36598;BME280;22607;49.550;11.940;2023-02-19T01:11:26;97046.13;;;8.29;100.00
36598;BME280;22607;49.550;11.940;2023-02-19T01:13:56;97047.41;;;8.25;100.00
36598;BME280;22607;49.550;11.940;2023-02-19T01:16:23;97023.88;;;8.51;100.00
36598;BME280;22607;49.550;11.940;2023-02-19T01:18:50;97024.84;;;8.50;100.00
36598;BME280;22607;49.550;11.940;2023-02-19T01:21:20;97011.13;;;8.30;100.00
36598;BME280;22607;49.550;11.940;2023-02-19T01:23:48;97015.69;;;8.28;100.00
36598;BME280;22607;49.550;11.940;2023-02-19T01:26:21;97031.75;;;8.33;100.00
36598;BME280;22607;49.550;11.940;2023-02-19T01:28:48;97025.44;;;8.62;100.00
36598;BME280;22607;49.550;11.940;2023-02-19T01:31:17;97034.06;;;8.55;100.00
36598;BME280;22607;49.550;11.940;2023-02-19T01:33:58;97029.72;;;8.45;100.00
36598;BME280;22607;49.550;11.940;2023-02-19T01:36:26;97033.19;;;8.27;100.00
36598;BME280;22607;49.550;11.940;2023-02-19T01:38:53;97018.72;;;8.41;100.00
36598;BME280;22607;49.550;11.940;2023-02-19T01:41:22;97022.03;;;8.52;100.00
36598;BME280;22607;49.550;11.940;2023-02-19T01:46:38;97013.63;;;8.58;100.00
36598;BME280;22607;49.550;11.940;2023-02-19T01:49:07;96990.63;;;8.52;100.00
36598;BME280;22607;49.550;11.940;2023-02-19T01:51:38;96984.63;;;8.33;100.00
36598;BME280;22607;49.550;11.940;2023-02-19T01:54:08;96976.63;;;8.53;100.00
36598;BME280;22607;49.550;11.940;2023-02-19T01:56:40;96978.91;;;8.56;100.00
36598;BME280;22607;49.550;11.940;2023-02-19T01:59:09;96969.34;;;8.47;100.00
36598;BME280;22607;49.550;11.940;2023-02-19T02:01:38;96969.69;;;8.52;100.00
36598;BME280;22607;49.550;11.940;2023-02-19T02:04:06;96969.34;;;8.47;100.00
36598;BME280;22607;49.550;11.940;2023-02-19T02:06:40;96976.28;;;8.30;100.00
36598;BME280;22607;49.550;11.940;2023-02-19T02:09:09;96973.94;;;8.45;100.00
36598;BME280;22607;49.550;11.940;2023-02-19T02:11:54;96955.56;;;8.36;100.00
36598;BME280;22607;49.550;11.940;2023-02-19T02:14:24;96955.19;;;8.31;100.00
36598;BME280;22607;49.550;11.940;2023-02-19T02:22:20;96955.03;;;8.33;100.00
36598;BME280;22607;49.550;11.940;2023-02-19T02:25:35;96959.41;;;8.24;100.00
36598;BME280;22607;49.550;11.940;2023-02-19T02:31:16;96950.78;;;8.32;100.00
36598;BME280;22607;49.550;11.940;2023-02-19T02:33:58;96939.44;;;8.23;100.00
36598;BME280;22607;49.550;11.940;2023-02-19T02:36:33;96942.38;;;8.20;100.00
36598;BME280;22607;49.550;11.940;2023-02-19T02:39:02;96941.66;;;8.36;100.00
36598;BME280;22607;49.550;11.940;2023-02-19T02:41:32;96944.22;;;8.27;100.00
36598;BME280;22607;49.550;11.940;2023-02-19T02:43:59;96935.69;;;8.25;100.00
36598;BME280;22607;49.550;11.940;2023-02-19T02:46:30;96948.00;;;8.07;100.00
36598;BME280;22607;49.550;11.940;2023-02-19T02:49:16;96943.19;;;8.20;100.00
36598;BME280;22607;49.550;11.940;2023-02-19T02:51:46;96941.56;;;8.19;100.00
36598;BME280;22607;49.550;11.940;2023-02-19T02:54:19;96932.94;;;8.27;100.00
36598;BME280;22607;49.550;11.940;2023-02-19T02:57:07;96934.22;;;8.23;100.00
36598;BME280;22607;49.550;11.940;2023-02-19T02:59:37;96932.31;;;8.07;100.00
36598;BME280;22607;49.550;11.940;2023-02-19T03:02:20;96935.34;;;8.20;100.00
36598;BME280;22607;49.550;11.940;2023-02-19T03:04:59;96930.22;;;8.10;100.00
36598;BME280;22607;49.550;11.940;2023-02-19T03:07:50;96918.47;;;8.14;100.00
36598;BME280;22607;49.550;11.940;2023-02-19T03:10:34;96914.06;;;7.88;100.00
36598;BME280;22607;49.550;11.940;2023-02-19T03:13:02;96894.47;;;7.93;100.00
36598;BME280;22607;49.550;11.940;2023-02-19T03:15:55;96896.47;;;7.99;100.00
36598;BME280;22607;49.550;11.940;2023-02-19T03:18:45;96900.06;;;7.98;100.00
36598;BME280;22607;49.550;11.940;2023-02-19T03:21:34;96901.28;;;7.85;100.00
36598;BME280;22607;49.550;11.940;2023-02-19T03:24:04;96894.53;;;8.01;100.00
36598;BME280;22607;49.550;11.940;2023-02-19T03:26:52;96890.09;;;7.75;100.00
36598;BME280;22607;49.550;11.940;2023-02-19T03:29:22;96895.09;;;8.13;100.00
36598;BME280;22607;49.550;11.940;2023-02-19T03:31:53;96898.09;;;8.00;100.00
36598;BME280;22607;49.550;11.940;2023-02-19T03:34:35;96907.50;;;7.84;100.00
36598;BME280;22607;49.550;11.940;2023-02-19T03:37:11;96900.38;;;7.95;100.00
36598;BME280;22607;49.550;11.940;2023-02-19T03:39:39;96902.75;;;8.06;100.00
36598;BME280;22607;49.550;11.940;2023-02-19T03:47:29;96899.91;;;7.99;100.00
36598;BME280;22607;49.550;11.940;2023-02-19T03:58:18;96895.59;;;7.90;100.00
36598;BME280;22607;49.550;11.940;2023-02-19T04:01:20;96884.19;;;8.26;100.00
36598;BME280;22607;49.550;11.940;2023-02-19T04:03:57;96877.47;;;8.23;100.00
36598;BME280;22607;49.550;11.940;2023-02-19T04:06:26;96892.63;;;7.85;100.00
36598;BME280;22607;49.550;11.940;2023-02-19T04:08:57;96888.22;;;7.85;100.00
36598;BME280;22607;49.550;11.940;2023-02-19T04:11:27;96889.19;;;8.11;100.00
36598;BME280;22607;49.550;11.940;2023-02-19T04:16:46;96895.50;;;8.00;100.00
36598;BME280;22607;49.550;11.940;2023-02-19T04:19:18;96885.44;;;8.13;100.00
36598;BME280;22607;49.550;11.940;2023-02-19T04:21:47;96887.00;;;7.98;100.00
36598;BME280;22607;49.550;11.940;2023-02-19T04:24:21;96889.91;;;7.95;100.00
36598;BME280;22607;49.550;11.940;2023-02-19T04:26:49;96897.34;;;8.08;100.00
36598;BME280;22607;49.550;11.940;2023-02-19T04:29:16;96901.81;;;8.16;100.00
36598;BME280;22607;49.550;11.940;2023-02-19T04:31:43;96909.19;;;8.20;100.00
36598;BME280;22607;49.550;11.940;2023-02-19T04:34:14;96907.81;;;8.08;100.00
36598;BME280;22607;49.550;11.940;2023-02-19T04:36:41;96901.25;;;8.04;100.00
36598;BME280;22607;49.550;11.940;2023-02-19T04:39:09;96899.91;;;8.26;100.00
36598;BME280;22607;49.550;11.940;2023-02-19T04:41:36;96899.22;;;7.97;100.00
36598;BME280;22607;49.550;11.940;2023-02-19T04:44:03;96909.31;;;8.10;100.00
36598;BME280;22607;49.550;11.940;2023-02-19T04:46:31;96901.97;;;7.87;100.00
36598;BME280;22607;49.550;11.940;2023-02-19T04:48:57;96898.47;;;8.05;100.00
36598;BME280;22607;49.550;11.940;2023-02-19T04:51:24;96902.97;;;7.95;100.00
36598;BME280;22607;49.550;11.940;2023-02-19T04:53:50;96908.81;;;8.15;100.00
36598;BME280;22607;49.550;11.940;2023-02-19T04:56:17;96900.28;;;8.05;100.00
36598;BME280;22607;49.550;11.940;2023-02-19T04:58:44;96899.00;;;8.09;100.00
36598;BME280;22607;49.550;11.940;2023-02-19T05:01:11;96900.16;;;8.14;100.00
36598;BME280;22607;49.550;11.940;2023-02-19T05:03:38;96906.38;;;8.13;100.00
36598;BME280;22607;49.550;11.940;2023-02-19T05:06:07;96898.38;;;8.15;100.00
36598;BME280;22607;49.550;11.940;2023-02-19T05:08:35;96899.91;;;7.99;100.00
36598;BME280;22607;49.550;11.940;2023-02-19T05:11:03;96908.53;;;8.18;100.00
36598;BME280;22607;49.550;11.940;2023-02-19T05:13:33;96912.34;;;8.32;100.00
36598;BME280;22607;49.550;11.940;2023-02-19T05:16:02;96911.38;;;8.33;100.00
36598;BME280;22607;49.550;11.940;2023-02-19T05:18:29;96913.06;;;8.08;100.00
36598;BME280;22607;49.550;11.940;2023-02-19T05:21:00;96906.63;;;8.28;100.00
36598;BME280;22607;49.550;11.940;2023-02-19T05:23:27;96898.13;;;8.35;100.00
36598;BME280;22607;49.550;11.940;2023-02-19T05:25:54;96910.56;;;8.33;100.00
36598;BME280;22607;49.550;11.940;2023-02-19T05:28:20;96900.09;;;8.33;100.00
36598;BME280;22607;49.550;11.940;2023-02-19T05:30:55;96908.81;;;8.15;100.00
36598;BME280;22607;49.550;11.940;2023-02-19T05:33:24;96901.72;;;8.34;100.00
36598;BME280;22607;49.550;11.940;2023-02-19T05:35:53;96896.00;;;8.30;100.00
36598;BME280;22607;49.550;11.940;2023-02-19T05:38:21;96900.78;;;8.43;100.00
36598;BME280;22607;49.550;11.940;2023-02-19T05:40:47;96895.84;;;8.32;100.00
36598;BME280;22607;49.550;11.940;2023-02-19T05:43:14;96898.66;;;8.38;100.00
36598;BME280;22607;49.550;11.940;2023-02-19T05:45:42;96891.31;;;8.42;100.00
36598;BME280;22607;49.550;11.940;2023-02-19T05:48:09;96900.75;;;8.35;100.00
36598;BME280;22607;49.550;11.940;2023-02-19T05:50:36;96910.44;;;8.43;100.00
36598;BME280;22607;49.550;11.940;2023-02-19T05:53:05;96909.44;;;8.35;100.00
36598;BME280;22607;49.550;11.940;2023-02-19T05:55:35;96898.13;;;8.35;100.00
36598;BME280;22607;49.550;11.940;2023-02-19T05:58:02;96901.94;;;8.40;100.00
36598;BME280;22607;49.550;11.940;2023-02-19T06:00:32;96906.75;;;8.27;100.00
36598;BME280;22607;49.550;11.940;2023-02-19T06:02:59;96901.81;;;8.24;100.00
36598;BME280;22607;49.550;11.940;2023-02-19T06:05:26;96895.84;;;8.40;100.00
36598;BME280;22607;49.550;11.940;2023-02-19T06:07:52;96914.88;;;8.16;100.00
36598;BME280;22607;49.550;11.940;2023-02-19T06:10:19;96914.88;;;8.16;100.00
36598;BME280;22607;49.550;11.940;2023-02-19T06:12:45;96912.44;;;8.14;100.00
36598;BME280;22607;49.550;11.940;2023-02-19T06:15:12;96906.84;;;8.09;100.00
36598;BME280;22607;49.550;11.940;2023-02-19T06:17:38;96902.22;;;8.29;100.00
36598;BME280;22607;49.550;11.940;2023-02-19T06:20:05;96918.38;;;8.24;100.00
36598;BME280;22607;49.550;11.940;2023-02-19T06:22:32;96923.53;;;8.16;100.00
36598;BME280;22607;49.550;11.940;2023-02-19T06:24:59;96919.78;;;8.10;100.00
36598;BME280;22607;49.550;11.940;2023-02-19T06:27:26;96914.88;;;8.16;100.00
36598;BME280;22607;49.550;11.940;2023-02-19T06:29:53;96922.97;;;8.04;100.00
36598;BME280;22607;49.550;11.940;2023-02-19T06:32:19;96911.72;;;8.04;100.00
36598;BME280;22607;49.550;11.940;2023-02-19T06:34:46;96928.22;;;8.04;100.00
36598;BME280;22607;49.550;11.940;2023-02-19T06:37:13;96928.31;;;8.21;100.00
36598;BME280;22607;49.550;11.940;2023-02-19T06:39:39;96926.88;;;8.00;100.00
36598;BME280;22607;49.550;11.940;2023-02-19T06:42:06;96932.84;;;8.10;100.00
36598;BME280;22607;49.550;11.940;2023-02-19T06:44:32;96929.91;;;8.13;100.00
36598;BME280;22607;49.550;11.940;2023-02-19T06:47:00;96933.66;;;8.11;100.00
36598;BME280;22607;49.550;11.940;2023-02-19T06:49:27;96951.53;;;8.16;100.00
36598;BME280;22607;49.550;11.940;2023-02-19T06:51:54;96944.63;;;7.88;100.00
36598;BME280;22607;49.550;11.940;2023-02-19T06:54:20;96942.47;;;8.10;100.00
36598;BME280;22607;49.550;11.940;2023-02-19T06:56:47;96950.94;;;8.04;100.00
36598;BME280;22607;49.550;11.940;2023-02-19T06:59:14;96958.25;;;8.00;100.00
36598;BME280;22607;49.550;11.940;2023-02-19T07:01:44;96945.03;;;8.01;100.00
36598;BME280;22607;49.550;11.940;2023-02-19T07:04:11;96957.19;;;8.11;100.00
36598;BME280;22607;49.550;11.940;2023-02-19T07:06:37;96957.56;;;8.16;100.00
36598;BME280;22607;49.550;11.940;2023-02-19T07:09:05;96956.84;;;8.32;100.00
36598;BME280;22607;49.550;11.940;2023-02-19T07:11:33;96965.56;;;8.14;100.00
36598;BME280;22607;49.550;11.940;2023-02-19T07:14:03;96964.59;;;8.16;100.00
36598;BME280;22607;49.550;11.940;2023-02-19T07:16:29;96964.84;;;8.31;100.00
36598;BME280;22607;49.550;11.940;2023-02-19T07:18:58;96967.31;;;8.06;100.00
36598;BME280;22607;49.550;11.940;2023-02-19T07:21:26;96982.06;;;8.15;100.00
36598;BME280;22607;49.550;11.940;2023-02-19T07:23:54;96981.38;;;8.31;100.00
36598;BME280;22607;49.550;11.940;2023-02-19T07:26:21;96967.00;;;8.35;100.00
36598;BME280;22607;49.550;11.940;2023-02-19T07:28:49;96989.69;;;8.26;100.00
36598;BME280;22607;49.550;11.940;2023-02-19T07:31:18;96986.03;;;8.46;100.00
36598;BME280;22607;49.550;11.940;2023-02-19T07:33:45;96991.91;;;8.21;100.00
36598;BME280;22607;49.550;11.940;2023-02-19T07:36:14;96991.69;;;8.33;100.00
36598;BME280;22607;49.550;11.940;2023-02-19T07:38:42;96989.69;;;8.26;100.00
36598;BME280;22607;49.550;11.940;2023-02-19T07:41:09;96989.38;;;8.56;100.00
36598;BME280;22607;49.550;11.940;2023-02-19T07:43:37;96996.09;;;8.85;100.00
36598;BME280;22607;49.550;11.940;2023-02-19T07:46:09;97003.34;;;8.65;100.00
36598;BME280;22607;49.550;11.940;2023-02-19T07:48:39;97012.50;;;8.61;100.00
36598;BME280;22607;49.550;11.940;2023-02-19T07:51:10;97017.53;;;8.54;100.00
36598;BME280;22607;49.550;11.940;2023-02-19T07:53:37;97011.56;;;8.52;100.00
36598;BME280;22607;49.550;11.940;2023-02-19T07:56:06;97006.97;;;8.46;100.00
36598;BME280;22607;49.550;11.940;2023-02-19T07:58:33;97007.06;;;8.54;100.00
36598;BME280;22607;49.550;11.940;2023-02-19T08:01:26;97018.53;;;8.61;100.00
36598;BME280;22607;49.550;11.940;2023-02-19T08:04:15;97013.69;;;8.48;100.00
36598;BME280;22607;49.550;11.940;2023-02-19T08:06:42;97024.09;;;8.58;100.00
36598;BME280;22607;49.550;11.940;2023-02-19T08:09:10;97020.16;;;8.54;100.00
36598;BME280;22607;49.550;11.940;2023-02-19T08:11:37;97018.38;;;8.63;100.00
36598;BME280;22607;49.550;11.940;2023-02-19T08:14:26;97021.03;;;8.45;100.00
36598;BME280;22607;49.550;11.940;2023-02-19T08:16:52;97021.53;;;8.48;100.00
36598;BME280;22607;49.550;11.940;2023-02-19T08:19:20;97025.53;;;8.52;100.00
36598;BME280;22607;49.550;11.940;2023-02-19T08:21:46;97028.59;;;8.48;100.00
36598;BME280;22607;49.550;11.940;2023-02-19T08:24:12;97024.31;;;8.47;100.00
36598;BME280;22607;49.550;11.940;2023-02-19T08:26:39;97031.44;;;8.55;100.00
36598;BME280;22607;49.550;11.940;2023-02-19T08:29:06;97024.50;;;8.72;100.00
36598;BME280;22607;49.550;11.940;2023-02-19T08:31:33;97040.50;;;8.42;100.00
36598;BME280;22607;49.550;11.940;2023-02-19T08:34:00;97025.63;;;8.69;100.00
36598;BME280;22607;49.550;11.940;2023-02-19T08:36:27;97035.13;;;8.70;100.00
36598;BME280;22607;49.550;11.940;2023-02-19T08:38:54;97036.47;;;8.74;100.00
36598;BME280;22607;49.550;11.940;2023-02-19T08:41:21;97043.88;;;8.87;100.00
36598;BME280;22607;49.550;11.940;2023-02-19T08:43:48;97050.84;;;9.05;100.00
36598;BME280;22607;49.550;11.940;2023-02-19T08:46:16;97042.50;;;9.01;100.00
36598;BME280;22607;49.550;11.940;2023-02-19T08:48:42;97043.59;;;8.90;100.00
36598;BME280;22607;49.550;11.940;2023-02-19T08:51:10;97052.28;;;8.99;100.00
36598;BME280;22607;49.550;11.940;2023-02-19T08:53:38;97057.09;;;9.12;100.00
36598;BME280;22607;49.550;11.940;2023-02-19T08:56:07;97049.41;;;9.11;100.00
36598;BME280;22607;49.550;11.940;2023-02-19T08:58:33;97064.34;;;8.84;100.00
36598;BME280;22607;49.550;11.940;2023-02-19T09:01:01;97058.50;;;8.98;100.00
36598;BME280;22607;49.550;11.940;2023-02-19T09:03:28;97062.63;;;9.01;100.00
36598;BME280;22607;49.550;11.940;2023-02-19T09:05:54;97080.97;;;9.01;100.00
36598;BME280;22607;49.550;11.940;2023-02-19T09:08:21;97089.47;;;9.03;100.00
36598;BME280;22607;49.550;11.940;2023-02-19T09:10:59;97086.03;;;9.02;100.00
36598;BME280;22607;49.550;11.940;2023-02-19T09:13:26;97079.53;;;9.15;100.00
36598;BME280;22607;49.550;11.940;2023-02-19T09:15:53;97080.44;;;9.40;100.00
36598;BME280;22607;49.550;11.940;2023-02-19T09:18:23;97080.75;;;9.29;100.00
36598;BME280;22607;49.550;11.940;2023-02-19T09:20:50;97094.50;;;9.31;100.00
36598;BME280;22607;49.550;11.940;2023-02-19T09:23:16;97094.44;;;9.14;100.00
36598;BME280;22607;49.550;11.940;2023-02-19T09:25:43;97096.97;;;9.32;100.00
36598;BME280;22607;49.550;11.940;2023-02-19T09:28:10;97100.34;;;9.16;100.00
36598;BME280;22607;49.550;11.940;2023-02-19T09:30:40;97104.78;;;9.24;100.00
36598;BME280;22607;49.550;11.940;2023-02-19T09:33:06;97099.22;;;9.19;100.00
36598;BME280;22607;49.550;11.940;2023-02-19T09:35:33;97111.16;;;9.13;100.00
36598;BME280;22607;49.550;11.940;2023-02-19T09:51:01;97112.81;;;9.57;100.00
36598;BME280;22607;49.550;11.940;2023-02-19T09:53:36;97118.88;;;9.58;100.00
36598;BME280;22607;49.550;11.940;2023-02-19T09:56:06;97123.66;;;9.28;100.00
36598;BME280;22607;49.550;11.940;2023-02-19T09:58:45;97132.22;;;9.38;100.00
36598;BME280;22607;49.550;11.940;2023-02-19T10:01:17;97134.56;;;9.50;100.00
36598;BME280;22607;49.550;11.940;2023-02-19T10:03:45;97143.47;;;9.22;100.00
36598;BME280;22607;49.550;11.940;2023-02-19T10:06:24;97137.72;;;9.27;100.00
36598;BME280;22607;49.550;11.940;2023-02-19T10:08:55;97140.69;;;9.24;100.00
36598;BME280;22607;49.550;11.940;2023-02-19T10:11:28;97138.66;;;9.17;100.00
36598;BME280;22607;49.550;11.940;2023-02-19T10:14:06;97150.41;;;9.05;100.00
36598;BME280;22607;49.550;11.940;2023-02-19T10:16:42;97159.28;;;9.12;100.00
36598;BME280;22607;49.550;11.940;2023-02-19T10:19:14;97155.31;;;9.08;100.00
36598;BME280;22607;49.550;11.940;2023-02-19T10:21:41;97164.72;;;9.19;100.00
36598;BME280;22607;49.550;11.940;2023-02-19T10:24:15;97169.75;;;9.12;100.00
36598;BME280;22607;49.550;11.940;2023-02-19T10:26:44;97168.19;;;8.93;100.00
36598;BME280;22607;49.550;11.940;2023-02-19T10:29:11;97162.38;;;8.81;100.00
36598;BME280;22607;49.550;11.940;2023-02-19T10:31:38;97173.56;;;9.18;100.00
36598;BME280;22607;49.550;11.940;2023-02-19T10:34:16;97173.38;;;9.11;100.00
36598;BME280;22607;49.550;11.940;2023-02-19T10:36:46;97181.53;;;9.08;100.00
36598;BME280;22607;49.550;11.940;2023-02-19T10:39:48;97174.06;;;9.22;100.00
36598;BME280;22607;49.550;11.940;2023-02-19T10:42:21;97176.41;;;9.25;100.00
36598;BME280;22607;49.550;11.940;2023-02-19T10:44:53;97181.28;;;9.54;100.00
36598;BME280;22607;49.550;11.940;2023-02-19T10:47:25;97177.47;;;9.83;100.00
36598;BME280;22607;49.550;11.940;2023-02-19T10:49:56;97182.81;;;10.25;100.00
36598;BME280;22607;49.550;11.940;2023-02-19T10:52:27;97175.88;;;9.91;100.00
36598;BME280;22607;49.550;11.940;2023-02-19T10:55:13;97175.31;;;9.70;100.00
36598;BME280;22607;49.550;11.940;2023-02-19T10:57:41;97171.75;;;9.88;100.00
36598;BME280;22607;49.550;11.940;2023-02-19T11:02:41;97190.72;;;9.74;100.00
36598;BME280;22607;49.550;11.940;2023-02-19T11:07:35;97190.00;;;9.55;100.00
36598;BME280;22607;49.550;11.940;2023-02-19T11:10:04;97187.84;;;9.50;100.00
36598;BME280;22607;49.550;11.940;2023-02-19T11:12:33;97190.34;;;9.33;100.00
36598;BME280;22607;49.550;11.940;2023-02-19T11:15:20;97178.75;;;9.36;100.00
36598;BME280;22607;49.550;11.940;2023-02-19T11:18:39;97186.44;;;9.38;100.00
36598;BME280;22607;49.550;11.940;2023-02-19T11:20:48;97182.88;;;9.47;100.00
36598;BME280;22607;49.550;11.940;2023-02-19T11:23:22;97178.78;;;9.44;100.00
36598;BME280;22607;49.550;11.940;2023-02-19T11:25:51;97187.91;;;9.32;100.00
36598;BME280;22607;49.550;11.940;2023-02-19T11:31:12;97196.28;;;9.36;100.00
36598;BME280;22607;49.550;11.940;2023-02-19T11:33:49;97197.97;;;9.45;100.00
36598;BME280;22607;49.550;11.940;2023-02-19T11:36:35;97198.88;;;9.62;100.00
36598;BME280;22607;49.550;11.940;2023-02-19T11:42:06;97196.31;;;9.79;100.00
36598;BME280;22607;49.550;11.940;2023-02-19T11:52:49;97194.50;;;10.39;100.00
36598;BME280;22607;49.550;11.940;2023-02-19T12:01:34;97202.03;;;10.26;100.00
36598;BME280;22607;49.550;11.940;2023-02-19T12:04:30;97203.00;;;10.24;100.00
36598;BME280;22607;49.550;11.940;2023-02-19T12:18:38;97226.63;;;10.24;100.00
36598;BME280;22607;49.550;11.940;2023-02-19T12:26:34;97225.13;;;10.22;100.00
36598;BME280;22607;49.550;11.940;2023-02-19T12:29:23;97226.28;;;10.19;100.00
36598;BME280;22607;49.550;11.940;2023-02-19T12:32:11;97213.50;;;10.24;100.00
36598;BME280;22607;49.550;11.940;2023-02-19T12:34:59;97210.69;;;10.09;100.00
36598;BME280;22607;49.550;11.940;2023-02-19T12:38:07;97214.13;;;10.02;100.00
36598;BME280;22607;49.550;11.940;2023-02-19T12:46:30;97211.81;;;9.64;100.00
36598;BME280;22607;49.550;11.940;2023-02-19T12:49:08;97223.50;;;9.69;100.00
36598;BME280;22607;49.550;11.940;2023-02-19T12:51:49;97234.56;;;9.55;100.00
36598;BME280;22607;49.550;11.940;2023-02-19T12:54:23;97231.16;;;9.63;100.00
36598;BME280;22607;49.550;11.940;2023-02-19T12:59:38;97236.97;;;9.75;100.00
36598;BME280;22607;49.550;11.940;2023-02-19T13:02:15;97234.03;;;9.86;100.00
36598;BME280;22607;49.550;11.940;2023-02-19T13:11:10;97236.75;;;10.03;100.00
36598;BME280;22607;49.550;11.940;2023-02-19T13:16:17;97236.47;;;10.22;100.00
36598;BME280;22607;49.550;11.940;2023-02-19T13:18:49;97238.25;;;9.70;100.00
36598;BME280;22607;49.550;11.940;2023-02-19T13:21:17;97240.28;;;9.85;100.00
36598;BME280;22607;49.550;11.940;2023-02-19T13:24:08;97234.91;;;9.95;100.00
36598;BME280;22607;49.550;11.940;2023-02-19T13:26:42;97237.50;;;9.87;100.00
36598;BME280;22607;49.550;11.940;2023-02-19T13:37:59;97243.03;;;9.49;100.00
36598;BME280;22607;49.550;11.940;2023-02-19T13:40:52;97242.78;;;9.60;100.00
36598;BME280;22607;49.550;11.940;2023-02-19T13:43:23;97245.53;;;9.85;100.00
36598;BME280;22607;49.550;11.940;2023-02-19T13:45:55;97251.88;;;9.48;100.00
36598;BME280;22607;49.550;11.940;2023-02-19T13:50:50;97253.78;;;9.64;100.00
36598;BME280;22607;49.550;11.940;2023-02-19T13:59:32;97259.88;;;9.64;100.00
36598;BME280;22607;49.550;11.940;2023-02-19T14:04:55;97258.00;;;9.56;100.00
36598;BME280;22607;49.550;11.940;2023-02-19T14:07:35;97257.78;;;9.50;100.00
36598;BME280;22607;49.550;11.940;2023-02-19T14:10:04;97265.34;;;9.53;100.00
36598;BME280;22607;49.550;11.940;2023-02-19T14:12:35;97267.72;;;9.64;100.00
36598;BME280;22607;49.550;11.940;2023-02-19T14:17:50;97273.81;;;9.73;100.00
36598;BME280;22607;49.550;11.940;2023-02-19T14:28:01;97280.78;;;9.56;100.00
36598;BME280;22607;49.550;11.940;2023-02-19T14:30:32;97282.53;;;9.47;100.00
36598;BME280;22607;49.550;11.940;2023-02-19T14:33:01;97292.84;;;9.49;100.00
36598;BME280;22607;49.550;11.940;2023-02-19T14:35:39;97298.47;;;9.54;100.00
36598;BME280;22607;49.550;11.940;2023-02-19T14:38:14;97297.31;;;9.30;100.00
36598;BME280;22607;49.550;11.940;2023-02-19T14:40:45;97286.91;;;9.38;100.00
36598;BME280;22607;49.550;11.940;2023-02-19T14:43:14;97294.81;;;9.47;100.00
36598;BME280;22607;49.550;11.940;2023-02-19T14:45:44;97301.00;;;9.37;100.00
36598;BME280;22607;49.550;11.940;2023-02-19T14:48:42;97302.91;;;9.35;100.00
36598;BME280;22607;49.550;11.940;2023-02-19T14:51:12;97317.00;;;9.34;100.00
36598;BME280;22607;49.550;11.940;2023-02-19T14:53:42;97317.28;;;9.49;100.00
36598;BME280;22607;49.550;11.940;2023-02-19T14:56:22;97316.22;;;9.60;100.00
36598;BME280;22607;49.550;11.940;2023-02-19T14:59:07;97322.31;;;9.42;100.00
36598;BME280;22607;49.550;11.940;2023-02-19T15:01:42;97314.16;;;9.27;100.00
36598;BME280;22607;49.550;11.940;2023-02-19T15:04:20;97318.97;;;9.32;100.00
36598;BME280;22607;49.550;11.940;2023-02-19T15:06:47;97316.81;;;9.54;100.00
36598;BME280;22607;49.550;11.940;2023-02-19T15:09:15;97323.91;;;9.62;100.00
36598;BME280;22607;49.550;11.940;2023-02-19T15:11:42;97314.59;;;9.67;100.00
36598;BME280;22607;49.550;11.940;2023-02-19T15:14:18;97311.38;;;9.74;100.00
36598;BME280;22607;49.550;11.940;2023-02-19T15:16:54;97319.69;;;9.69;100.00
36598;BME280;22607;49.550;11.940;2023-02-19T15:19:22;97310.41;;;9.75;100.00
36598;BME280;22607;49.550;11.940;2023-02-19T15:21:49;97322.16;;;9.44;100.00
36598;BME280;22607;49.550;11.940;2023-02-19T15:24:17;97303.91;;;9.61;100.00
36598;BME280;22607;49.550;11.940;2023-02-19T15:26:48;97313.31;;;9.45;100.00